UTA6126 ULAM-UWUU
Flight info
| Callsign | UTA6126 |
|---|---|
| Flight time | N/A |
| Altitude | 37000 |
| Route | NIKDI1A NIKDI T765 UHT T820 LAMLI T173 SOGTE T820 SONMI T173 GITLU L991 GONUT T173 EROGU L991 LOBVI T173 ASTED L991 LURIM T173 IRBOM L991 RASOB T173 OBETU L991 DIGTU T173 PENEN L991 TEDNA T173 NILET L991 BIBNI T173 NOGRI L991 DEGEB DEGEB3B |
| Aircraft | B735/M-SDFHIW/S |
Departure
| Time | 2026-05-05 12:49 |
|---|---|
| Airport | Naryan Mar Airport (ULAM) |
Arrival
| Time | N/A |
|---|---|
| Airport | Ufa International Airport (UWUU) |
| Time | Latitude | Longitude | Altitude | Speed | Heading |
|---|---|---|---|---|---|
| 2026-05-05 12:47 | 67.63880 | 53.09280 | 47 ft | 0 kts | 81° |
| 2026-05-05 12:48 | 67.63880 | 53.09290 | 47 ft | 3 kts | 81° |
| 2026-05-05 12:48 | 67.63891 | 53.09490 | 46 ft | 33 kts | 83° |
| 2026-05-05 12:48 | 67.63948 | 53.10713 | 43 ft | 103 kts | 81° |
| 2026-05-05 12:48 | 67.64083 | 53.13184 | 78 ft | 167 kts | 83° |
| 2026-05-05 12:49 | 67.64282 | 53.16373 | 687 ft | 180 kts | 83° |
| 2026-05-05 12:49 | 67.64492 | 53.19532 | 1862 ft | 165 kts | 82° |
| 2026-05-05 12:49 | 67.64651 | 53.22642 | 2494 ft | 180 kts | 97° |
| 2026-05-05 12:49 | 67.64154 | 53.25710 | 2973 ft | 186 kts | 129° |
| 2026-05-05 12:50 | 67.63308 | 53.28280 | 3807 ft | 191 kts | 144° |
| 2026-05-05 12:50 | 67.62023 | 53.29589 | 4173 ft | 216 kts | 171° |
| 2026-05-05 12:50 | 67.60460 | 53.29860 | 4797 ft | 229 kts | 178° |
| 2026-05-05 12:50 | 67.58844 | 53.29818 | 5673 ft | 236 kts | 179° |
| 2026-05-05 12:51 | 67.57172 | 53.29711 | 6512 ft | 245 kts | 180° |
| 2026-05-05 12:51 | 67.55451 | 53.29588 | 7465 ft | 249 kts | 180° |
| 2026-05-05 12:51 | 67.53717 | 53.29469 | 8292 ft | 256 kts | 181° |
| 2026-05-05 12:51 | 67.51921 | 53.29330 | 9129 ft | 262 kts | 181° |
| 2026-05-05 12:52 | 67.50078 | 53.29186 | 9623 ft | 278 kts | 182° |
| 2026-05-05 12:52 | 67.48101 | 53.29075 | 10270 ft | 288 kts | 182° |
| 2026-05-05 12:52 | 67.46096 | 53.28942 | 11219 ft | 290 kts | 184° |
| 2026-05-05 12:52 | 67.44059 | 53.28785 | 12058 ft | 296 kts | 184° |
| 2026-05-05 12:53 | 67.41985 | 53.28633 | 12910 ft | 299 kts | 185° |
| 2026-05-05 12:53 | 67.39885 | 53.28473 | 13725 ft | 304 kts | 185° |
| 2026-05-05 12:53 | 67.37754 | 53.28341 | 14490 ft | 308 kts | 185° |
| 2026-05-05 12:53 | 67.35599 | 53.28213 | 15263 ft | 313 kts | 186° |
| 2026-05-05 12:54 | 67.31187 | 53.27920 | 16901 ft | 320 kts | 186° |
| 2026-05-05 12:54 | 67.28944 | 53.27773 | 17700 ft | 324 kts | 186° |
| 2026-05-05 12:54 | 67.26673 | 53.27617 | 18483 ft | 328 kts | 186° |
| 2026-05-05 12:55 | 67.24384 | 53.27455 | 19231 ft | 332 kts | 186° |
| 2026-05-05 12:55 | 67.22065 | 53.27303 | 19985 ft | 335 kts | 187° |
| 2026-05-05 12:55 | 67.19728 | 53.27138 | 20745 ft | 337 kts | 187° |
| 2026-05-05 12:55 | 67.17366 | 53.26974 | 21419 ft | 341 kts | 187° |
| 2026-05-05 12:56 | 67.14990 | 53.26808 | 22114 ft | 343 kts | 188° |
| 2026-05-05 12:56 | 67.12587 | 53.26655 | 22791 ft | 346 kts | 188° |
| 2026-05-05 12:56 | 67.10177 | 53.26500 | 23435 ft | 349 kts | 188° |
| 2026-05-05 12:56 | 67.07743 | 53.26342 | 24071 ft | 352 kts | 188° |
| 2026-05-05 12:57 | 67.05281 | 53.26179 | 24666 ft | 355 kts | 188° |
| 2026-05-05 12:57 | 67.02798 | 53.26005 | 25196 ft | 359 kts | 189° |
| 2026-05-05 12:57 | 67.00282 | 53.25828 | 25680 ft | 364 kts | 189° |
| 2026-05-05 12:57 | 66.97745 | 53.25661 | 26232 ft | 367 kts | 189° |
| 2026-05-05 12:58 | 66.95181 | 53.25492 | 26750 ft | 370 kts | 189° |
| 2026-05-05 12:58 | 66.92598 | 53.25311 | 27217 ft | 374 kts | 190° |
| 2026-05-05 12:58 | 66.89985 | 53.25233 | 27772 ft | 377 kts | 188° |
| 2026-05-05 12:58 | 66.87344 | 53.25497 | 28335 ft | 382 kts | 186° |
| 2026-05-05 12:59 | 66.84641 | 53.25970 | 28382 ft | 398 kts | 185° |
| 2026-05-05 12:59 | 66.81851 | 53.26538 | 28673 ft | 405 kts | 184° |
| 2026-05-05 12:59 | 66.79036 | 53.27121 | 29193 ft | 407 kts | 185° |
| 2026-05-05 13:00 | 66.73329 | 53.28166 | 30034 ft | 414 kts | 186° |
| 2026-05-05 13:00 | 66.70459 | 53.28670 | 30618 ft | 413 kts | 186° |
| 2026-05-05 13:01 | 66.61805 | 53.30223 | 32084 ft | 416 kts | 185° |
| 2026-05-05 13:01 | 66.58922 | 53.30737 | 32651 ft | 415 kts | 185° |
| 2026-05-05 13:01 | 66.56033 | 53.31253 | 33079 ft | 417 kts | 185° |
| 2026-05-05 13:01 | 66.53137 | 53.31759 | 33495 ft | 418 kts | 185° |
| 2026-05-05 13:02 | 66.50240 | 53.32273 | 34008 ft | 417 kts | 185° |
| 2026-05-05 13:02 | 66.47391 | 53.32776 | 34502 ft | 416 kts | 185° |
| 2026-05-05 13:02 | 66.44498 | 53.33286 | 34881 ft | 417 kts | 185° |
| 2026-05-05 13:02 | 66.41601 | 53.33801 | 35227 ft | 419 kts | 184° |
| 2026-05-05 13:03 | 66.38694 | 53.34320 | 35639 ft | 419 kts | 184° |
| 2026-05-05 13:03 | 66.35778 | 53.34835 | 36010 ft | 420 kts | 184° |
| 2026-05-05 13:03 | 66.32857 | 53.35344 | 36252 ft | 423 kts | 184° |
| 2026-05-05 13:03 | 66.29915 | 53.35855 | 36475 ft | 423 kts | 184° |
| 2026-05-05 13:04 | 66.26985 | 53.36361 | 36656 ft | 424 kts | 183° |
| 2026-05-05 13:04 | 66.24043 | 53.36876 | 36697 ft | 421 kts | 183° |
| 2026-05-05 13:04 | 66.18309 | 53.37882 | 36661 ft | 405 kts | 184° |
| 2026-05-05 13:05 | 66.12689 | 53.38899 | 36682 ft | 409 kts | 183° |
| 2026-05-05 13:05 | 66.06992 | 53.39876 | 36675 ft | 411 kts | 184° |
| 2026-05-05 13:06 | 66.01289 | 53.40825 | 36676 ft | 410 kts | 184° |
| 2026-05-05 13:06 | 65.95625 | 53.41799 | 36673 ft | 407 kts | 184° |
| 2026-05-05 13:07 | 65.89971 | 53.42752 | 36670 ft | 408 kts | 184° |
| 2026-05-05 13:07 | 65.84226 | 53.43699 | 36690 ft | 421 kts | 184° |
| 2026-05-05 13:08 | 65.78287 | 53.44705 | 36682 ft | 433 kts | 183° |
| 2026-05-05 13:08 | 65.72255 | 53.45733 | 36670 ft | 435 kts | 183° |
| 2026-05-05 13:09 | 65.66243 | 53.46763 | 36674 ft | 431 kts | 183° |
| 2026-05-05 13:09 | 65.60289 | 53.47762 | 36681 ft | 428 kts | 184° |
| 2026-05-05 13:10 | 65.54332 | 53.48747 | 36674 ft | 430 kts | 183° |
| 2026-05-05 13:10 | 65.48393 | 53.49731 | 36670 ft | 431 kts | 183° |
| 2026-05-05 13:11 | 65.42418 | 53.50696 | 36671 ft | 429 kts | 184° |
| 2026-05-05 13:11 | 65.36465 | 53.51641 | 36665 ft | 428 kts | 184° |
| 2026-05-05 13:12 | 65.30507 | 53.52591 | 36662 ft | 429 kts | 184° |
| 2026-05-05 13:12 | 65.24541 | 53.53548 | 36665 ft | 430 kts | 183° |
| 2026-05-05 13:13 | 65.18585 | 53.54514 | 36672 ft | 429 kts | 183° |
| 2026-05-05 13:13 | 65.12621 | 53.55439 | 36669 ft | 429 kts | 183° |
| 2026-05-05 13:14 | 65.06660 | 53.56389 | 36650 ft | 429 kts | 183° |
| 2026-05-05 13:14 | 65.00710 | 53.57332 | 36648 ft | 429 kts | 183° |
| 2026-05-05 13:15 | 64.94815 | 53.58262 | 36649 ft | 429 kts | 183° |
| 2026-05-05 13:15 | 64.88859 | 53.59195 | 36649 ft | 429 kts | 183° |
| 2026-05-05 13:16 | 64.82901 | 53.60130 | 36640 ft | 429 kts | 183° |
| 2026-05-05 13:16 | 64.76938 | 53.61072 | 36640 ft | 429 kts | 183° |
| 2026-05-05 13:17 | 64.70973 | 53.62001 | 36639 ft | 429 kts | 183° |
| 2026-05-05 13:17 | 64.65025 | 53.62925 | 36639 ft | 429 kts | 183° |
| 2026-05-05 13:18 | 64.59071 | 53.63856 | 36639 ft | 428 kts | 183° |
| 2026-05-05 13:18 | 64.53129 | 53.64775 | 36640 ft | 428 kts | 183° |
| 2026-05-05 13:19 | 64.47178 | 53.65694 | 36641 ft | 429 kts | 183° |
| 2026-05-05 13:19 | 64.41263 | 53.66613 | 36652 ft | 429 kts | 183° |
| 2026-05-05 13:20 | 64.35293 | 53.67529 | 36647 ft | 430 kts | 183° |
| 2026-05-05 13:20 | 64.29318 | 53.68449 | 36647 ft | 429 kts | 183° |
| 2026-05-05 13:21 | 64.23367 | 53.69355 | 36649 ft | 429 kts | 183° |
| 2026-05-05 13:21 | 64.17399 | 53.70252 | 36649 ft | 430 kts | 183° |
| 2026-05-05 13:22 | 64.11436 | 53.71152 | 36650 ft | 430 kts | 183° |
| 2026-05-05 13:22 | 64.05460 | 53.72048 | 36651 ft | 431 kts | 183° |
| 2026-05-05 13:23 | 63.99483 | 53.72943 | 36648 ft | 431 kts | 183° |
| 2026-05-05 13:23 | 63.93494 | 53.73848 | 36648 ft | 431 kts | 183° |
| 2026-05-05 13:24 | 63.87513 | 53.74739 | 36651 ft | 430 kts | 183° |
| 2026-05-05 13:24 | 63.81544 | 53.75625 | 36649 ft | 430 kts | 183° |
| 2026-05-05 13:25 | 63.75579 | 53.76511 | 36651 ft | 430 kts | 183° |
| 2026-05-05 13:25 | 63.69614 | 53.77396 | 36650 ft | 430 kts | 183° |
| 2026-05-05 13:26 | 63.63645 | 53.78279 | 36650 ft | 430 kts | 183° |
| 2026-05-05 13:26 | 63.57671 | 53.79138 | 36649 ft | 429 kts | 184° |
| 2026-05-05 13:27 | 63.51730 | 53.79234 | 36651 ft | 425 kts | 188° |
| 2026-05-05 13:27 | 63.45841 | 53.78679 | 36648 ft | 423 kts | 188° |
| 2026-05-05 13:28 | 63.39954 | 53.78233 | 36646 ft | 424 kts | 188° |
| 2026-05-05 13:28 | 63.34072 | 53.77862 | 36640 ft | 424 kts | 188° |
| 2026-05-05 13:29 | 63.28162 | 53.77473 | 36639 ft | 424 kts | 188° |
| 2026-05-05 13:29 | 63.22295 | 53.77077 | 36637 ft | 422 kts | 188° |
| 2026-05-05 13:30 | 63.17399 | 53.76751 | 36640 ft | 422 kts | 188° |
| 2026-05-05 13:30 | 63.10618 | 53.76306 | 36641 ft | 423 kts | 188° |
| 2026-05-05 13:31 | 63.04729 | 53.75912 | 36639 ft | 424 kts | 188° |
| 2026-05-05 13:31 | 62.98829 | 53.75523 | 36640 ft | 424 kts | 188° |
| 2026-05-05 13:32 | 62.93927 | 53.75202 | 36640 ft | 423 kts | 188° |
| 2026-05-05 13:32 | 62.88056 | 53.74817 | 36640 ft | 422 kts | 187° |
| 2026-05-05 13:33 | 62.82163 | 53.75292 | 36641 ft | 428 kts | 178° |
| 2026-05-05 13:33 | 62.76279 | 53.77720 | 36641 ft | 432 kts | 174° |
| 2026-05-05 13:34 | 62.70383 | 53.80270 | 36641 ft | 432 kts | 175° |
| 2026-05-05 13:34 | 62.64454 | 53.82540 | 36640 ft | 432 kts | 176° |
| 2026-05-05 13:35 | 62.61491 | 53.83673 | 36639 ft | 432 kts | 176° |